Bonita, CA (91908)

5:38 AM PDT on September 04, 2015 (GMT -0700)
Lower Surrey Drive | | Change Station
CLOSE
Current Station
Personal Weather Station
Location: Bonita, CA
Elevation: 150 ft
Nearby Weather Stations
Active Advisory: Beach Hazard Statement

Elev 150 ft 32.65 °N, 117.04 °W | Updated 0 second ago

Overcast
Overcast
65.7 °F
Feels Like 65.7 °F
N
0.0
Wind Variable Wind from West
Gusts 0.0 mph

Today
High -- | Low -- °F
--% Chance of Precip.
Yesterday
High -- | Low -- °F
Precip. -- in
6:24 AM 7:09 PM
Waning Gibbous, 60% visible
Pressure 29.88 in
Visibility 10.0 miles
Clouds Mostly Cloudy 3000 ft
Dew Point 58 °F
Humidity 77%
Rainfall 0.00 in
Snow Depth Not available.
UV 0.0 out of 12
Pollen 7.70 out of 12
Air Quality Not available.
Flu Activity Not available.
SPECI KSDM 041235Z AUTO 13004KT 10SM BKN030 18/14 A2988 RMK AO2 T01830139
Pressure 29.88 in
Visibility 10.0 miles
Clouds Mostly Cloudy 3000 ft
Dew Point 58 °F
Humidity 77%
Rainfall 0.00 in
Snow Depth Not available.
UV 0.0 out of 12
Pollen 7.70 out of 12
Air Quality Not available.
Flu Activity Not available.
SPECI KSDM 041235Z AUTO 13004KT 10SM BKN030 18/14 A2988 RMK AO2 T01830139

10-Day Weather Forecast

×

Almanac

Astronomy

Sep. 04, 2015 Rise Set
Actual Time
Civil Twilight
Nautical Twilight
Astronomical Twilight
Moon
Length of Visible Light
Length of Day
Tomorrow will be .
, % of the Moon is Illuminated

Today's Extremes

State Highs State Lows

Community

WunderPhotos

Upload Photos

1,852,170 photos uploaded!

WunderBlogs® & News

Nearby

Air Quality

  Air Quality AQ Index Pollutant
Not available.

Snow Depth

Station Depth Elevation

Earthquake Activity

City Distance Mag. Time & Date
Minimum magnitude displayed is 2.5.

Coastal Water Temperatures

Place Temperature

Stations

Nearby Weather Stations

Station Location Temp. Windchill Dew Point Humidity Wind Precip. Elev Updated Type
                   
Beach Hazard Statement
Statement as of 5:31 AM PDT on September 04, 2015

... Beach hazards statement remains in effect from Saturday
morning through Tuesday evening...

* waves and surf... building to 4 to 6 feet with 7 to 8 foot sets
on southwest facing beaches.

* Timing... surf building during the day Saturday... peaking on
Sunday... and remaining elevated through Tuesday.

* Impacts... strong and frequent rip and longshore currents will
create hazardous swimming conditions.

Precautionary/preparedness actions...

A beach hazards statement for rip currents means that conditions
are present to support a heightened risk of strong rip currents.
Rip currents are typically more frequent and stronger in the
vicinity of jetties... inlets... and piers. Swimmers caught in a
rip current should swim parallel to the coast to escape the rip
current before trying to swim for shore. Swimmers should always
swim near a lifeguard.